Time;durP1;ratioP1;P1;durP2;ratioP2;P2;SDS_P1;SDS_P2;PMS_P1;PMS_P2;Temp;Humidity;BMP_temperature;BMP_pressure;BME280_temperature;BME280_humidity;BME280_pressure;Samples;Min_cycle;Max_cycle;Signal;HPM_P1;HPM_P2
2022/04/09 00:00:46;;;;;;;;;;;5.90;92.50;;;;;;5077761;28;20367;-76
2022/04/09 00:03:12;;;;;;;;;;;5.90;92.50;;;;;;5078125;28;19908;-76
2022/04/09 00:05:38;;;;;;;;;;;5.80;92.50;;;;;;5077966;28;19935;-76
2022/04/09 00:08:03;;;;;;;;;;;5.80;92.60;;;;;;5060309;28;19908;-76
2022/04/09 00:10:29;;;;;;;;;;;5.80;92.70;;;;;;5059823;28;20283;-77
2022/04/09 00:12:55;;;;;;;;;;;5.80;92.70;;;;;;5060037;28;19909;-77
2022/04/09 00:15:20;;;;;;;;;;;5.80;92.80;;;;;;5059889;28;19908;-76
2022/04/09 00:17:46;;;;;;;;;;;5.80;92.70;;;;;;5060172;28;19908;-77
2022/04/09 00:20:13;;;;;;;;;;;5.80;92.70;;;;;;5060020;28;19934;-77
2022/04/09 00:22:39;;;;;;;;;;;5.80;92.90;;;;;;5060064;28;19908;-77
2022/04/09 00:25:08;;;;;;;;;;;5.70;92.70;;;;;;5059513;28;20302;-76
2022/04/09 00:27:33;;;;;;;;;;;5.70;92.70;;;;;;5077372;28;19912;-76
2022/04/09 00:29:59;;;;;;;;;;;5.70;92.80;;;;;;5077775;28;19909;-76
2022/04/09 00:32:25;;;;;;;;;;;5.70;92.80;;;;;;5059342;28;19909;-76
2022/04/09 00:34:50;;;;;;;;;;;5.60;92.80;;;;;;5077609;28;19962;-76
2022/04/09 00:37:16;;;;;;;;;;;5.60;92.70;;;;;;5077755;28;19908;-76
2022/04/09 00:39:42;;;;;;;;;;;5.60;92.70;;;;;;5077263;28;19908;-76
2022/04/09 00:42:18;;;;;;;;;;;5.50;92.60;;;;;;5077854;28;19920;-76
2022/04/09 00:44:44;;;;;;;;;;;5.50;92.50;;;;;;5077488;28;20007;-76
2022/04/09 00:47:10;;;;;;;;;;;5.40;92.50;;;;;;5077381;28;19924;-76
2022/04/09 00:49:37;;;;;;;;;;;5.40;92.80;;;;;;5077444;28;19921;-76
2022/04/09 00:52:03;;;;;;;;;;;5.40;92.90;;;;;;5059629;28;19908;-76
2022/04/09 00:54:30;;;;;;;;;;;5.30;92.80;;;;;;5077224;28;20494;-76
2022/04/09 00:57:01;;;;;;;;;;;5.30;92.80;;;;;;5059797;28;19915;-77
2022/04/09 00:59:29;;;;;;;;;;;5.30;93.00;;;;;;5059387;28;20414;-76
2022/04/09 01:01:55;;;;;;;;;;;5.20;92.90;;;;;;5059395;28;19909;-76
2022/04/09 01:04:20;;;;;;;;;;;5.20;92.80;;;;;;5077301;28;19913;-76
2022/04/09 01:06:46;;;;;;;;;;;5.20;93.00;;;;;;5077553;28;19915;-76
2022/04/09 01:09:12;;;;;;;;;;;5.20;93.00;;;;;;5059161;28;19927;-76
2022/04/09 01:11:38;;;;;;;;;;;5.20;93.20;;;;;;5077733;28;19908;-76
2022/04/09 01:14:04;;;;;;;;;;;5.20;93.20;;;;;;5077264;28;20367;-76
2022/04/09 01:16:29;;;;;;;;;;;5.20;93.40;;;;;;5077134;28;19909;-76
2022/04/09 01:18:55;;;;;;;;;;;5.20;93.20;;;;;;5077207;28;19909;-76
2022/04/09 01:21:23;;;;;;;;;;;5.20;93.20;;;;;;5078334;28;19913;-76
2022/04/09 01:23:49;;;;;;;;;;;5.20;93.10;;;;;;5081296;28;20279;-76
2022/04/09 01:26:15;;;;;;;;;;;5.20;93.20;;;;;;5080887;28;19913;-76
2022/04/09 01:28:40;;;;;;;;;;;5.20;93.20;;;;;;5080446;28;19908;-76
2022/04/09 01:31:06;;;;;;;;;;;5.20;93.30;;;;;;5080733;28;19947;-76
2022/04/09 01:33:32;;;;;;;;;;;5.20;93.30;;;;;;5080651;28;20349;-76
2022/04/09 01:35:57;;;;;;;;;;;5.20;93.40;;;;;;5081082;28;19971;-76
2022/04/09 01:38:23;;;;;;;;;;;5.20;93.30;;;;;;5080687;28;19913;-76
2022/04/09 01:40:49;;;;;;;;;;;5.20;93.30;;;;;;5080499;28;19958;-76
2022/04/09 01:43:15;;;;;;;;;;;5.10;93.30;;;;;;5080552;28;19915;-76
2022/04/09 01:45:41;;;;;;;;;;;5.10;93.30;;;;;;5080377;28;19916;-76
2022/04/09 01:48:07;;;;;;;;;;;5.10;93.40;;;;;;5080514;28;19975;-76
2022/04/09 01:50:33;;;;;;;;;;;5.10;93.50;;;;;;5080433;28;19921;-76
2022/04/09 01:52:59;;;;;;;;;;;5.00;93.50;;;;;;5080356;28;19995;-77
2022/04/09 01:55:25;;;;;;;;;;;5.10;93.60;;;;;;5080429;28;19939;-77
2022/04/09 01:57:51;;;;;;;;;;;5.10;93.70;;;;;;5080353;28;19912;-77
2022/04/09 02:00:17;;;;;;;;;;;5.10;93.70;;;;;;5080446;28;20015;-77
2022/04/09 02:02:43;;;;;;;;;;;5.10;93.60;;;;;;5062064;28;19915;-77
2022/04/09 02:05:11;;;;;;;;;;;5.20;93.80;;;;;;5062588;28;20036;-76
2022/04/09 02:07:41;;;;;;;;;;;5.30;93.80;;;;;;5080181;28;19909;-76
2022/04/09 02:10:07;;;;;;;;;;;5.30;93.60;;;;;;5080222;28;19916;-76
2022/04/09 02:12:34;;;;;;;;;;;5.30;93.50;;;;;;5080076;28;19995;-76
2022/04/09 02:15:07;;;;;;;;;;;5.30;93.40;;;;;;5080316;28;20283;-76
2022/04/09 02:17:35;;;;;;;;;;;5.30;93.30;;;;;;5067548;28;19960;-76
2022/04/09 02:20:01;;;;;;;;;;;5.30;93.30;;;;;;5080034;28;19909;-76
2022/04/09 02:22:26;;;;;;;;;;;5.30;93.30;;;;;;5080206;28;19909;-76
2022/04/09 02:24:52;;;;;;;;;;;5.30;93.40;;;;;;5079791;28;19920;-76
2022/04/09 02:27:19;;;;;;;;;;;5.30;93.40;;;;;;5077536;28;20375;-76
2022/04/09 02:29:47;;;;;;;;;;;5.40;93.40;;;;;;5080016;28;19908;-76
2022/04/09 02:32:13;;;;;;;;;;;5.40;93.30;;;;;;5066275;28;20325;-76
2022/04/09 02:34:39;;;;;;;;;;;5.40;93.30;;;;;;5079716;28;19908;-76
2022/04/09 02:37:05;;;;;;;;;;;5.40;93.10;;;;;;5079829;28;20357;-76
2022/04/09 02:39:31;;;;;;;;;;;5.40;93.10;;;;;;5079466;28;19938;-76
2022/04/09 02:41:57;;;;;;;;;;;5.40;93.30;;;;;;5079995;28;19909;-76
2022/04/09 02:44:24;;;;;;;;;;;5.40;93.00;;;;;;5079491;28;19924;-76
2022/04/09 02:46:50;;;;;;;;;;;5.30;93.00;;;;;;5079350;28;19916;-76
2022/04/09 02:49:16;;;;;;;;;;;5.30;93.20;;;;;;5079257;28;19920;-76
2022/04/09 02:51:42;;;;;;;;;;;5.30;93.00;;;;;;5079629;28;19908;-76
2022/04/09 02:54:15;;;;;;;;;;;5.30;93.20;;;;;;5079312;28;20394;-76
2022/04/09 02:56:41;;;;;;;;;;;5.30;93.10;;;;;;5079499;28;19999;-76
2022/04/09 02:59:08;;;;;;;;;;;5.20;93.00;;;;;;5079225;28;19908;-76
2022/04/09 03:01:34;;;;;;;;;;;5.20;92.80;;;;;;5079115;28;19916;-76
2022/04/09 03:03:59;;;;;;;;;;;5.20;92.90;;;;;;5079154;28;19909;-76
2022/04/09 03:06:25;;;;;;;;;;;5.10;92.70;;;;;;5079175;28;19959;-76
2022/04/09 03:08:50;;;;;;;;;;;5.00;92.30;;;;;;5079118;28;19938;-76
2022/04/09 03:11:16;;;;;;;;;;;5.00;92.00;;;;;;5078977;28;19908;-76
2022/04/09 03:13:42;;;;;;;;;;;4.90;91.80;;;;;;5061264;28;20376;-75
2022/04/09 03:16:07;;;;;;;;;;;4.80;92.00;;;;;;5078712;28;19909;-76
2022/04/09 03:18:33;;;;;;;;;;;4.80;91.90;;;;;;5078932;28;20049;-76
2022/04/09 03:20:58;;;;;;;;;;;4.70;92.20;;;;;;5078889;28;19958;-76
2022/04/09 03:23:24;;;;;;;;;;;4.70;92.80;;;;;;5078973;28;19958;-76
2022/04/09 03:25:50;;;;;;;;;;;4.70;92.90;;;;;;5078640;28;19913;-76
2022/04/09 03:28:15;;;;;;;;;;;4.70;93.20;;;;;;5078204;28;19940;-76
2022/04/09 03:30:42;;;;;;;;;;;4.60;93.30;;;;;;5078519;28;19951;-76
2022/04/09 03:33:08;;;;;;;;;;;4.60;93.10;;;;;;5078502;28;19948;-76
2022/04/09 03:35:33;;;;;;;;;;;4.50;93.00;;;;;;5078673;28;20297;-76
2022/04/09 03:37:59;;;;;;;;;;;4.50;93.00;;;;;;5078602;28;19909;-76
2022/04/09 03:40:25;;;;;;;;;;;4.50;92.70;;;;;;5078223;28;20303;-76
2022/04/09 03:42:50;;;;;;;;;;;4.40;92.50;;;;;;5060371;28;19908;-76
2022/04/09 03:45:16;;;;;;;;;;;4.40;92.80;;;;;;5060069;28;19912;-76
2022/04/09 03:47:42;;;;;;;;;;;4.40;92.90;;;;;;5078269;28;19915;-76
2022/04/09 03:50:07;;;;;;;;;;;4.40;93.40;;;;;;5078356;28;19921;-76
2022/04/09 03:52:33;;;;;;;;;;;4.30;93.40;;;;;;5060583;28;19944;-76
2022/04/09 03:54:59;;;;;;;;;;;4.30;93.00;;;;;;5078363;28;19934;-76
2022/04/09 03:57:24;;;;;;;;;;;4.30;93.10;;;;;;5078102;28;20007;-76
2022/04/09 03:59:54;;;;;;;;;;;4.30;93.30;;;;;;5078336;28;19909;-76
2022/04/09 04:02:19;;;;;;;;;;;4.40;93.90;;;;;;5077653;28;19909;-76
2022/04/09 04:04:45;;;;;;;;;;;4.40;94.10;;;;;;5078242;28;19912;-76
2022/04/09 04:07:11;;;;;;;;;;;4.30;94.20;;;;;;5077957;28;20000;-76
2022/04/09 04:09:36;;;;;;;;;;;4.40;94.30;;;;;;5078160;28;19904;-76
2022/04/09 04:12:02;;;;;;;;;;;4.40;94.50;;;;;;5077923;28;20371;-76
2022/04/09 04:14:28;;;;;;;;;;;4.40;94.60;;;;;;5077967;28;20003;-76
2022/04/09 04:16:54;;;;;;;;;;;4.40;94.60;;;;;;5077741;28;19931;-76
2022/04/09 04:19:19;;;;;;;;;;;4.50;94.60;;;;;;5077993;28;19909;-76
2022/04/09 04:21:45;;;;;;;;;;;4.50;94.60;;;;;;5077899;28;20371;-76
2022/04/09 04:24:11;;;;;;;;;;;4.60;94.70;;;;;;5077850;28;19912;-76
2022/04/09 04:26:36;;;;;;;;;;;4.70;94.60;;;;;;5077376;28;19916;-76
2022/04/09 04:29:02;;;;;;;;;;;4.70;94.50;;;;;;5077823;28;19915;-76
2022/04/09 04:31:28;;;;;;;;;;;4.70;94.40;;;;;;5077437;28;19913;-76
2022/04/09 04:33:53;;;;;;;;;;;4.70;94.20;;;;;;5077654;28;20295;-76
2022/04/09 04:36:19;;;;;;;;;;;4.60;94.00;;;;;;5077809;28;19908;-76
2022/04/09 04:38:46;;;;;;;;;;;4.60;94.00;;;;;;5059793;28;19909;-76
2022/04/09 04:41:12;;;;;;;;;;;4.50;93.90;;;;;;5077344;28;19913;-76
2022/04/09 04:43:37;;;;;;;;;;;4.50;94.00;;;;;;5077735;28;19909;-76
2022/04/09 04:46:03;;;;;;;;;;;4.50;94.00;;;;;;5077378;28;19912;-76
2022/04/09 04:48:29;;;;;;;;;;;4.40;94.00;;;;;;5077540;28;20411;-76
2022/04/09 04:50:54;;;;;;;;;;;4.40;94.10;;;;;;5059487;28;20046;-76
2022/04/09 04:53:20;;;;;;;;;;;4.40;94.20;;;;;;5077804;28;19962;-76
2022/04/09 04:55:46;;;;;;;;;;;4.30;94.00;;;;;;5077552;28;19970;-76
2022/04/09 04:58:12;;;;;;;;;;;4.30;94.00;;;;;;5081928;28;19909;-76
2022/04/09 05:00:38;;;;;;;;;;;4.20;93.90;;;;;;5063746;28;20261;-76
2022/04/09 05:03:03;;;;;;;;;;;4.30;94.00;;;;;;5081522;28;19962;-76
2022/04/09 05:05:29;;;;;;;;;;;4.20;94.20;;;;;;5081512;28;19912;-76
2022/04/09 05:07:55;;;;;;;;;;;4.20;94.30;;;;;;5081715;28;20386;-76
2022/04/09 05:10:22;;;;;;;;;;;4.20;94.20;;;;;;5063439;28;19908;-76
2022/04/09 05:12:48;;;;;;;;;;;4.20;94.10;;;;;;5081397;28;20001;-76
2022/04/09 05:15:14;;;;;;;;;;;4.20;94.20;;;;;;5080986;28;19912;-76
2022/04/09 05:17:40;;;;;;;;;;;4.20;94.40;;;;;;5081349;28;19908;-76
2022/04/09 05:20:07;;;;;;;;;;;4.20;94.60;;;;;;5081147;28;19948;-76
2022/04/09 05:22:33;;;;;;;;;;;4.20;94.60;;;;;;5081216;28;20383;-76
2022/04/09 05:24:59;;;;;;;;;;;4.10;94.60;;;;;;5080906;28;20020;-76
2022/04/09 05:27:25;;;;;;;;;;;4.10;94.60;;;;;;5080613;28;19912;-76
2022/04/09 05:29:50;;;;;;;;;;;4.10;94.60;;;;;;5081003;28;19908;-76
2022/04/09 05:32:16;;;;;;;;;;;4.10;94.60;;;;;;5080680;28;19915;-76
2022/04/09 05:34:42;;;;;;;;;;;4.00;94.60;;;;;;5080702;28;19947;-76
2022/04/09 05:37:08;;;;;;;;;;;4.10;94.70;;;;;;5062890;28;20002;-76
2022/04/09 05:39:34;;;;;;;;;;;4.00;95.00;;;;;;5080516;28;19908;-76
2022/04/09 05:42:00;;;;;;;;;;;4.00;94.70;;;;;;5081006;28;20023;-76
2022/04/09 05:44:26;;;;;;;;;;;4.00;94.80;;;;;;5080487;28;19940;-76
2022/04/09 05:46:52;;;;;;;;;;;4.10;94.90;;;;;;5080618;28;19909;-76
2022/04/09 05:49:18;;;;;;;;;;;4.00;94.80;;;;;;5080328;28;19920;-76
2022/04/09 05:51:44;;;;;;;;;;;4.00;94.60;;;;;;5080685;28;19912;-76
2022/04/09 05:54:09;;;;;;;;;;;4.00;94.40;;;;;;5080303;28;20344;-76
2022/04/09 05:56:36;;;;;;;;;;;4.00;94.60;;;;;;5080616;28;20376;-76
2022/04/09 05:59:02;;;;;;;;;;;4.00;94.70;;;;;;5080546;28;20399;-76
2022/04/09 06:01:28;;;;;;;;;;;4.00;94.80;;;;;;5080256;28;19973;-76
2022/04/09 06:03:55;;;;;;;;;;;4.00;94.70;;;;;;5080305;28;19915;-76
2022/04/09 06:06:21;;;;;;;;;;;4.00;94.70;;;;;;5062399;28;19978;-76
2022/04/09 06:08:48;;;;;;;;;;;4.10;94.70;;;;;;5061990;28;19931;-76
2022/04/09 06:11:14;;;;;;;;;;;4.10;94.80;;;;;;5080255;28;19909;-76
2022/04/09 06:13:39;;;;;;;;;;;4.10;94.90;;;;;;5080171;28;19915;-76
2022/04/09 06:16:08;;;;;;;;;;;4.10;94.90;;;;;;5061923;28;19995;-76
2022/04/09 06:18:37;;;;;;;;;;;4.20;94.90;;;;;;5080401;28;19908;-76
2022/04/09 06:21:07;;;;;;;;;;;4.20;94.90;;;;;;5080126;28;20003;-76
2022/04/09 06:23:32;;;;;;;;;;;4.20;94.90;;;;;;5079999;28;19951;-76
2022/04/09 06:25:58;;;;;;;;;;;4.20;94.90;;;;;;5079857;28;19917;-76
2022/04/09 06:28:24;;;;;;;;;;;4.20;94.80;;;;;;5079456;28;19922;-76
2022/04/09 06:30:50;;;;;;;;;;;4.20;94.80;;;;;;5079709;28;20287;-76
2022/04/09 06:33:16;;;;;;;;;;;4.30;94.80;;;;;;5079586;28;19966;-76
2022/04/09 06:35:42;;;;;;;;;;;4.30;94.80;;;;;;5079911;28;20288;-76
2022/04/09 06:38:07;;;;;;;;;;;4.30;94.80;;;;;;5079835;28;20279;-76
2022/04/09 06:40:33;;;;;;;;;;;4.30;94.70;;;;;;5079470;28;19915;-76
2022/04/09 06:42:59;;;;;;;;;;;4.40;94.80;;;;;;5079574;28;20458;-76
2022/04/09 06:45:24;;;;;;;;;;;4.40;94.60;;;;;;5079417;28;20318;-76
2022/04/09 06:47:50;;;;;;;;;;;4.50;94.60;;;;;;5079463;28;20348;-75
2022/04/09 06:50:16;;;;;;;;;;;4.40;94.30;;;;;;5079493;28;19921;-76
2022/04/09 06:52:41;;;;;;;;;;;4.40;94.20;;;;;;5079357;28;19938;-76
2022/04/09 06:55:09;;;;;;;;;;;4.50;94.40;;;;;;5079450;28;19932;-76
2022/04/09 06:57:35;;;;;;;;;;;4.50;94.30;;;;;;5079291;28;19909;-76
2022/04/09 07:00:02;;;;;;;;;;;4.60;94.40;;;;;;5079679;28;19912;-76
2022/04/09 07:02:28;;;;;;;;;;;4.60;94.40;;;;;;5078917;28;19974;-76
2022/04/09 07:04:54;;;;;;;;;;;4.60;94.40;;;;;;5079291;28;19916;-76
2022/04/09 07:07:20;;;;;;;;;;;4.70;94.30;;;;;;5079033;28;20307;-76
2022/04/09 07:09:46;;;;;;;;;;;4.70;94.20;;;;;;5079232;28;19954;-76
2022/04/09 07:12:12;;;;;;;;;;;4.70;94.00;;;;;;5078907;28;19913;-76
2022/04/09 07:14:37;;;;;;;;;;;4.80;94.50;;;;;;5079180;28;19951;-76
2022/04/09 07:17:04;;;;;;;;;;;4.90;94.40;;;;;;5078575;28;19943;-76
2022/04/09 07:19:30;;;;;;;;;;;5.00;94.40;;;;;;5078254;28;19915;-76
2022/04/09 07:21:56;;;;;;;;;;;5.10;94.50;;;;;;5078802;28;19908;-76
2022/04/09 07:24:22;;;;;;;;;;;5.10;94.30;;;;;;5078590;28;19908;-76
2022/04/09 07:26:47;;;;;;;;;;;5.10;94.10;;;;;;5078258;28;20426;-76
2022/04/09 07:29:13;;;;;;;;;;;5.20;93.90;;;;;;5078573;28;19942;-76
2022/04/09 07:31:38;;;;;;;;;;;5.20;93.80;;;;;;5078387;28;20002;-76
2022/04/09 07:34:04;;;;;;;;;;;5.40;93.80;;;;;;5078647;28;19995;-76
2022/04/09 07:36:30;;;;;;;;;;;5.50;93.80;;;;;;5078607;28;19908;-76
2022/04/09 07:38:56;;;;;;;;;;;5.70;93.90;;;;;;5078456;28;19909;-75
2022/04/09 07:41:21;;;;;;;;;;;6.10;94.40;;;;;;5078182;28;19944;-76
2022/04/09 07:43:47;;;;;;;;;;;6.80;95.30;;;;;;5078596;28;20291;-76
2022/04/09 07:46:13;;;;;;;;;;;7.90;95.20;;;;;;5077961;28;20414;-77
2022/04/09 07:48:38;;;;;;;;;;;9.00;93.90;;;;;;5078592;28;19916;-77
2022/04/09 07:51:04;;;;;;;;;;;9.90;91.80;;;;;;5060427;28;19969;-75
2022/04/09 07:53:30;;;;;;;;;;;10.50;90.70;;;;;;5078209;28;19948;-76
2022/04/09 07:55:55;;;;;;;;;;;11.00;90.20;;;;;;5077979;28;19963;-75
2022/04/09 07:58:22;;;;;;;;;;;11.40;90.60;;;;;;5078254;28;19908;-76
2022/04/09 08:00:51;;;;;;;;;;;11.90;90.20;;;;;;5077942;28;20371;-76
2022/04/09 08:03:16;;;;;;;;;;;12.90;83.50;;;;;;5078092;28;19909;-77
2022/04/09 08:05:42;;;;;;;;;;;13.20;85.60;;;;;;5077976;28;19920;-76
2022/04/09 08:08:08;;;;;;;;;;;13.90;82.40;;;;;;5059873;28;19912;-76
2022/04/09 08:10:34;;;;;;;;;;;14.20;82.40;;;;;;5077960;28;19909;-79
2022/04/09 08:13:00;;;;;;;;;;;15.00;75.50;;;;;;5060321;28;19912;-83
2022/04/09 08:15:26;;;;;;;;;;;15.20;78.30;;;;;;5059856;28;20421;-76
2022/04/09 08:17:54;;;;;;;;;;;15.50;80.20;;;;;;5078265;28;19916;-75
2022/04/09 08:20:20;;;;;;;;;;;16.20;76.90;;;;;;5077938;28;19914;-75
2022/04/09 08:22:47;;;;;;;;;;;16.70;77.40;;;;;;5078016;28;19908;-75
2022/04/09 08:25:13;;;;;;;;;;;17.00;80.00;;;;;;5059570;28;20379;-77
2022/04/09 08:27:38;;;;;;;;;;;17.70;77.00;;;;;;5077438;28;19909;-74
2022/04/09 08:30:06;;;;;;;;;;;18.30;73.50;;;;;;5077518;28;19962;-74
2022/04/09 08:32:32;;;;;;;;;;;18.70;73.70;;;;;;5059746;28;19916;-74
2022/04/09 08:34:58;;;;;;;;;;;19.20;73.10;;;;;;5059627;28;19919;-75
2022/04/09 08:37:23;;;;;;;;;;;20.10;64.00;;;;;;5077823;28;19995;-74
2022/04/09 08:39:54;;;;;;;;;;;20.10;68.40;;;;;;5077562;28;20383;-74
2022/04/09 08:42:21;;;;;;;;;;;20.20;71.20;;;;;;5077899;28;20416;-74
2022/04/09 08:44:47;;;;;;;;;;;20.50;71.30;;;;;;5077467;28;19919;-72
2022/04/09 08:47:14;;;;;;;;;;;21.20;64.60;;;;;;5077566;28;19908;-72
2022/04/09 08:49:40;;;;;;;;;;;21.50;65.60;;;;;;5077417;28;19927;-71
2022/04/09 08:52:07;;;;;;;;;;;21.70;66.50;;;;;;5059761;28;19916;-70
2022/04/09 08:54:34;;;;;;;;;;;22.40;58.60;;;;;;5077316;28;19998;-70
2022/04/09 08:57:00;;;;;;;;;;;22.40;63.30;;;;;;5077815;28;19915;-70
2022/04/09 08:59:26;;;;;;;;;;;22.70;59.50;;;;;;5077390;28;19995;-70
2022/04/09 09:01:51;;;;;;;;;;;23.20;58.00;;;;;;5077402;28;19959;-70
2022/04/09 09:04:17;;;;;;;;;;;23.50;53.00;;;;;;5077405;28;19908;-70
2022/04/09 09:06:45;;;;;;;;;;;23.60;53.70;;;;;;5077687;28;19908;-72
2022/04/09 09:09:24;;;;;;;;;;;23.70;55.90;;;;;;5077231;28;19916;-72
2022/04/09 09:11:49;;;;;;;;;;;23.70;60.10;;;;;;5077404;28;20260;-72
2022/04/09 09:14:25;;;;;;;;;;;23.80;58.30;;;;;;5077587;28;20065;-72
2022/04/09 09:16:51;;;;;;;;;;;23.90;57.80;;;;;;5059054;28;20600;-72
2022/04/09 09:19:17;;;;;;;;;;;24.10;52.60;;;;;;5077535;28;19944;-72
2022/04/09 09:21:53;;;;;;;;;;;24.50;52.70;;;;;;5077314;28;19909;-72
2022/04/09 09:24:18;;;;;;;;;;;24.40;55.50;;;;;;5059167;28;19944;-72
2022/04/09 09:26:44;;;;;;;;;;;24.60;53.00;;;;;;5059103;28;19934;-72
2022/04/09 09:29:11;;;;;;;;;;;25.00;48.60;;;;;;5077182;28;20525;-72
2022/04/09 09:31:43;;;;;;;;;;;25.30;49.60;;;;;;5076920;28;19916;-72
2022/04/09 09:34:12;;;;;;;;;;;25.00;51.20;;;;;;5068643;28;19915;-72
2022/04/09 09:36:40;;;;;;;;;;;24.80;49.90;;;;;;5077305;28;19915;-72
2022/04/09 09:39:07;;;;;;;;;;;24.60;52.70;;;;;;5076977;28;19909;-72
2022/04/09 09:41:33;;;;;;;;;;;24.80;54.60;;;;;;5077010;28;20272;-72
2022/04/09 09:44:05;;;;;;;;;;;24.80;53.90;;;;;;5080678;28;19967;-72
2022/04/09 09:46:31;;;;;;;;;;;24.70;52.10;;;;;;5080311;28;19952;-72
2022/04/09 09:48:57;;;;;;;;;;;24.80;55.30;;;;;;5062560;28;19908;-72
2022/04/09 09:51:23;;;;;;;;;;;25.10;55.30;;;;;;5080699;28;20320;-72
2022/04/09 09:53:49;;;;;;;;;;;25.60;55.70;;;;;;5080629;28;20280;-72
2022/04/09 09:56:32;;;;;;;;;;;26.00;50.70;;;;;;5080311;28;19908;-72
2022/04/09 09:58:59;;;;;;;;;;;26.10;47.90;;;;;;5080155;28;20322;-72
2022/04/09 10:01:24;;;;;;;;;;;26.20;50.80;;;;;;5080232;28;20402;-72
2022/04/09 10:03:51;;;;;;;;;;;26.60;48.60;;;;;;5078558;28;19936;-72
2022/04/09 10:06:17;;;;;;;;;;;26.80;52.50;;;;;;5079549;28;20386;-72
2022/04/09 10:08:42;;;;;;;;;;;27.10;51.90;;;;;;5080149;28;19909;-72
2022/04/09 10:11:09;;;;;;;;;;;27.50;48.40;;;;;;5061776;28;19915;-72
2022/04/09 10:13:35;;;;;;;;;;;27.80;53.00;;;;;;5080189;28;19915;-72
2022/04/09 10:16:01;;;;;;;;;;;28.00;51.50;;;;;;5080229;28;19908;-72
2022/04/09 10:18:27;;;;;;;;;;;28.20;51.90;;;;;;5080119;28;19908;-72
2022/04/09 10:20:59;;;;;;;;;;;28.30;49.50;;;;;;5080093;28;19909;-72
2022/04/09 10:23:25;;;;;;;;;;;28.30;49.40;;;;;;5078287;28;19958;-73
2022/04/09 10:25:52;;;;;;;;;;;28.00;45.40;;;;;;5061217;28;20369;-73
2022/04/09 10:28:31;;;;;;;;;;;27.40;46.80;;;;;;5079424;28;20386;-73
2022/04/09 10:30:57;;;;;;;;;;;26.50;46.80;;;;;;5079736;28;19915;-73
2022/04/09 10:33:24;;;;;;;;;;;25.70;46.60;;;;;;5079629;28;19951;-72
2022/04/09 10:35:50;;;;;;;;;;;25.80;49.70;;;;;;5061945;28;19916;-72
2022/04/09 10:38:16;;;;;;;;;;;26.20;49.90;;;;;;5079748;28;19922;-72
2022/04/09 10:40:49;;;;;;;;;;;26.80;48.30;;;;;;5061564;28;19913;-72
2022/04/09 10:43:20;;;;;;;;;;;27.30;49.30;;;;;;5079570;28;19916;-72
2022/04/09 10:46:07;;;;;;;;;;;27.70;48.30;;;;;;5061757;28;19913;-72
2022/04/09 10:48:34;;;;;;;;;;;28.10;49.50;;;;;;5051625;28;19909;-72
2022/04/09 10:51:04;;;;;;;;;;;28.40;48.50;;;;;;5079315;28;19927;-72
2022/04/09 10:53:33;;;;;;;;;;;28.70;48.20;;;;;;5078605;28;19958;-73
2022/04/09 10:56:21;;;;;;;;;;;29.00;48.20;;;;;;5079065;28;19920;-73
2022/04/09 10:59:10;;;;;;;;;;;29.20;44.90;;;;;;5079297;28;19909;-72
2022/04/09 11:01:48;;;;;;;;;;;29.30;45.10;;;;;;5032432;28;19908;-73
2022/04/09 11:07:10;;;;;;;;;;;29.10;44.30;;;;;;5079530;28;19913;-73
2022/04/09 11:09:43;;;;;;;;;;;28.40;43.00;;;;;;5079164;28;20402;-73
2022/04/09 11:12:09;;;;;;;;;;;27.90;41.30;;;;;;5079150;28;19909;-73
2022/04/09 11:14:41;;;;;;;;;;;27.20;41.50;;;;;;5061543;28;19915;-73
2022/04/09 11:17:23;;;;;;;;;;;27.50;45.20;;;;;;5079041;28;19908;-73
2022/04/09 11:19:49;;;;;;;;;;;27.70;44.80;;;;;;5078937;28;20288;-72
2022/04/09 11:22:14;;;;;;;;;;;28.00;43.70;;;;;;5079054;28;19909;-73
2022/04/09 11:24:40;;;;;;;;;;;28.20;44.90;;;;;;5060727;28;19915;-73
2022/04/09 11:27:06;;;;;;;;;;;28.10;45.80;;;;;;5078481;28;20340;-73
2022/04/09 11:29:33;;;;;;;;;;;28.10;43.80;;;;;;5078763;28;19912;-72
2022/04/09 11:31:58;;;;;;;;;;;28.30;44.50;;;;;;5078452;28;19909;-73
2022/04/09 11:34:25;;;;;;;;;;;28.30;44.10;;;;;;5078625;28;19924;-73
2022/04/09 11:36:52;;;;;;;;;;;28.40;41.60;;;;;;5078548;28;19909;-72
2022/04/09 11:39:18;;;;;;;;;;;28.40;44.00;;;;;;5078386;28;19916;-72
2022/04/09 11:41:47;;;;;;;;;;;28.40;42.70;;;;;;5078420;28;20337;-73
2022/04/09 11:44:28;;;;;;;;;;;28.10;43.50;;;;;;5078417;28;19995;-72
2022/04/09 11:46:54;;;;;;;;;;;27.90;43.70;;;;;;5066214;28;20057;-72
2022/04/09 11:49:19;;;;;;;;;;;27.30;41.80;;;;;;5078040;28;19963;-72
2022/04/09 11:51:54;;;;;;;;;;;26.70;43.60;;;;;;5078704;28;20268;-72
2022/04/09 11:54:20;;;;;;;;;;;26.40;42.60;;;;;;5078148;28;20018;-72
2022/04/09 11:56:46;;;;;;;;;;;26.60;45.70;;;;;;5078537;28;19912;-72
2022/04/09 11:59:13;;;;;;;;;;;26.70;45.50;;;;;;5078361;28;19913;-72
2022/04/09 12:01:39;;;;;;;;;;;26.90;45.70;;;;;;5078184;28;19916;-71
2022/04/09 12:04:05;;;;;;;;;;;27.00;45.00;;;;;;5078085;28;20467;-72
2022/04/09 12:06:30;;;;;;;;;;;27.20;45.40;;;;;;5077808;28;19982;-72
2022/04/09 12:08:56;;;;;;;;;;;27.40;46.40;;;;;;5077910;28;19952;-71
2022/04/09 12:11:22;;;;;;;;;;;27.50;45.20;;;;;;5078182;28;19935;-72
2022/04/09 12:13:49;;;;;;;;;;;27.30;44.20;;;;;;5077999;28;19909;-71
2022/04/09 12:16:19;;;;;;;;;;;26.90;44.00;;;;;;5077702;28;19908;-72
2022/04/09 12:18:45;;;;;;;;;;;26.70;44.50;;;;;;5078084;28;19909;-72
2022/04/09 12:21:31;;;;;;;;;;;26.40;43.60;;;;;;5078087;28;20329;-71
2022/04/09 12:24:00;;;;;;;;;;;26.00;43.00;;;;;;5065251;28;19991;-71
2022/04/09 12:26:26;;;;;;;;;;;25.50;43.60;;;;;;5076398;28;19950;-71
2022/04/09 12:29:12;;;;;;;;;;;25.50;44.00;;;;;;5077440;28;19912;-73
2022/04/09 12:31:38;;;;;;;;;;;25.50;43.80;;;;;;5077376;28;19915;-71
2022/04/09 12:34:04;;;;;;;;;;;25.50;42.60;;;;;;5077584;28;19908;-71
2022/04/09 12:36:30;;;;;;;;;;;25.80;44.60;;;;;;5066162;28;19951;-70
2022/04/09 12:38:56;;;;;;;;;;;25.80;44.20;;;;;;5090485;28;20004;-70
2022/04/09 12:41:22;;;;;;;;;;;25.40;43.30;;;;;;5078832;28;20341;-71
2022/04/09 12:43:52;;;;;;;;;;;25.20;43.10;;;;;;5081286;28;19912;-70
2022/04/09 12:46:18;;;;;;;;;;;25.20;44.00;;;;;;5081721;28;19944;-71
2022/04/09 12:48:48;;;;;;;;;;;25.00;43.00;;;;;;5088605;28;20401;-71
2022/04/09 12:51:16;;;;;;;;;;;25.10;43.80;;;;;;5081455;28;19917;-71
2022/04/09 12:53:42;;;;;;;;;;;25.00;44.40;;;;;;5062922;28;20383;-71
2022/04/09 12:56:09;;;;;;;;;;;24.80;43.60;;;;;;5083243;28;19913;-71
2022/04/09 12:58:35;;;;;;;;;;;24.70;43.50;;;;;;5082072;28;19926;-72
2022/04/09 13:01:02;;;;;;;;;;;24.40;43.90;;;;;;5077414;28;20310;-72
2022/04/09 13:03:27;;;;;;;;;;;24.00;42.00;;;;;;5083936;28;19998;-72
2022/04/09 13:05:53;;;;;;;;;;;23.60;42.60;;;;;;5087100;28;19955;-72
2022/04/09 13:08:18;;;;;;;;;;;23.30;43.90;;;;;;5086337;28;19912;-72
2022/04/09 13:10:44;;;;;;;;;;;23.00;44.80;;;;;;5083223;28;20355;-72
2022/04/09 13:13:10;;;;;;;;;;;22.70;45.40;;;;;;5081224;28;20391;-72
2022/04/09 13:15:36;;;;;;;;;;;22.50;45.30;;;;;;5081503;28;19913;-72
2022/04/09 13:18:01;;;;;;;;;;;22.10;45.80;;;;;;5078046;28;20272;-73
2022/04/09 13:20:27;;;;;;;;;;;21.70;45.70;;;;;;5079044;28;20421;-72
2022/04/09 13:22:52;;;;;;;;;;;21.40;46.00;;;;;;5077894;28;19908;-72
2022/04/09 13:25:19;;;;;;;;;;;21.20;47.30;;;;;;5080025;28;19913;-73
2022/04/09 13:27:47;;;;;;;;;;;21.00;46.10;;;;;;5080377;28;20062;-73
2022/04/09 13:30:16;;;;;;;;;;;20.60;43.60;;;;;;5079863;28;19923;-73
2022/04/09 13:32:42;;;;;;;;;;;20.40;42.20;;;;;;5080561;28;19919;-72
2022/04/09 13:35:07;;;;;;;;;;;20.40;45.60;;;;;;5062584;28;19908;-72
2022/04/09 13:37:33;;;;;;;;;;;20.30;45.80;;;;;;5080677;28;19909;-73
2022/04/09 13:39:59;;;;;;;;;;;20.10;46.30;;;;;;5080588;28;19912;-72
2022/04/09 13:42:25;;;;;;;;;;;20.10;47.10;;;;;;5080770;28;19999;-72
2022/04/09 13:44:51;;;;;;;;;;;19.90;45.90;;;;;;5080174;28;19912;-72
2022/04/09 13:47:16;;;;;;;;;;;19.80;47.10;;;;;;5080636;28;19908;-72
2022/04/09 13:49:42;;;;;;;;;;;19.70;47.40;;;;;;5080237;28;19981;-72
2022/04/09 13:52:09;;;;;;;;;;;19.40;46.70;;;;;;5080541;28;19908;-72
2022/04/09 13:54:35;;;;;;;;;;;19.20;47.40;;;;;;5080307;28;20283;-71
2022/04/09 13:57:00;;;;;;;;;;;18.90;47.80;;;;;;5080494;28;19916;-72
2022/04/09 13:59:26;;;;;;;;;;;18.80;46.10;;;;;;5080274;28;19908;-72
2022/04/09 14:01:52;;;;;;;;;;;18.60;45.70;;;;;;5079384;28;19952;-72
2022/04/09 14:04:17;;;;;;;;;;;18.50;47.10;;;;;;5066380;28;20360;-72
2022/04/09 14:06:43;;;;;;;;;;;18.40;48.30;;;;;;5080138;28;19942;-72
2022/04/09 14:09:09;;;;;;;;;;;18.30;47.90;;;;;;5080096;28;20000;-72
2022/04/09 14:11:34;;;;;;;;;;;18.20;48.90;;;;;;5080101;28;19909;-72
2022/04/09 14:14:01;;;;;;;;;;;18.00;45.90;;;;;;5080408;28;19943;-72
2022/04/09 14:16:27;;;;;;;;;;;17.80;46.20;;;;;;5068558;28;19912;-72
2022/04/09 14:18:53;;;;;;;;;;;17.70;46.90;;;;;;5076911;28;19915;-73
2022/04/09 14:21:18;;;;;;;;;;;17.60;47.40;;;;;;5080091;28;19908;-72
2022/04/09 14:23:44;;;;;;;;;;;17.60;47.90;;;;;;5079975;28;20375;-71